sensor_id;sensor_type;location;lat;lon;timestamp;temperature;humidity
10702;DHT22;5402;50.004;8.246;2023-03-14T00:02:16;10.10;99.90
10702;DHT22;5402;50.004;8.246;2023-03-14T00:04:42;10.10;99.90
10702;DHT22;5402;50.004;8.246;2023-03-14T00:07:10;10.20;99.90
10702;DHT22;5402;50.004;8.246;2023-03-14T00:09:37;10.30;99.90
10702;DHT22;5402;50.004;8.246;2023-03-14T00:12:05;10.40;99.90
10702;DHT22;5402;50.004;8.246;2023-03-14T00:14:34;10.40;99.90
10702;DHT22;5402;50.004;8.246;2023-03-14T00:17:00;10.40;99.90
10702;DHT22;5402;50.004;8.246;2023-03-14T00:19:27;10.60;99.90
10702;DHT22;5402;50.004;8.246;2023-03-14T00:21:54;10.60;99.90
10702;DHT22;5402;50.004;8.246;2023-03-14T00:24:20;10.60;99.90
10702;DHT22;5402;50.004;8.246;2023-03-14T00:26:47;10.60;99.90
10702;DHT22;5402;50.004;8.246;2023-03-14T00:29:14;10.50;99.90
10702;DHT22;5402;50.004;8.246;2023-03-14T00:31:42;10.50;99.90
10702;DHT22;5402;50.004;8.246;2023-03-14T00:34:08;10.60;99.90
10702;DHT22;5402;50.004;8.246;2023-03-14T00:36:35;10.60;99.90
10702;DHT22;5402;50.004;8.246;2023-03-14T00:39:02;10.60;99.90
10702;DHT22;5402;50.004;8.246;2023-03-14T00:41:29;10.60;99.90
10702;DHT22;5402;50.004;8.246;2023-03-14T00:43:55;10.70;99.90
10702;DHT22;5402;50.004;8.246;2023-03-14T00:46:22;10.70;99.90
10702;DHT22;5402;50.004;8.246;2023-03-14T00:48:50;10.70;99.90
10702;DHT22;5402;50.004;8.246;2023-03-14T00:51:17;10.70;99.90
10702;DHT22;5402;50.004;8.246;2023-03-14T00:53:43;10.60;99.90
10702;DHT22;5402;50.004;8.246;2023-03-14T00:56:12;10.60;99.90
10702;DHT22;5402;50.004;8.246;2023-03-14T00:58:39;10.70;99.90
10702;DHT22;5402;50.004;8.246;2023-03-14T01:01:08;10.60;99.90
10702;DHT22;5402;50.004;8.246;2023-03-14T01:03:35;10.60;99.90
10702;DHT22;5402;50.004;8.246;2023-03-14T01:06:15;10.60;99.90
10702;DHT22;5402;50.004;8.246;2023-03-14T01:08:42;10.60;99.90
10702;DHT22;5402;50.004;8.246;2023-03-14T01:11:10;10.60;99.90
10702;DHT22;5402;50.004;8.246;2023-03-14T01:13:37;10.70;99.90
10702;DHT22;5402;50.004;8.246;2023-03-14T01:16:06;10.80;99.90
10702;DHT22;5402;50.004;8.246;2023-03-14T01:18:34;10.80;99.90
10702;DHT22;5402;50.004;8.246;2023-03-14T01:21:02;10.80;99.90
10702;DHT22;5402;50.004;8.246;2023-03-14T01:23:30;10.80;99.90
10702;DHT22;5402;50.004;8.246;2023-03-14T01:25:57;10.80;99.90
10702;DHT22;5402;50.004;8.246;2023-03-14T01:28:23;10.70;99.90
10702;DHT22;5402;50.004;8.246;2023-03-14T01:30:50;10.70;99.90
10702;DHT22;5402;50.004;8.246;2023-03-14T01:33:17;10.70;99.90
10702;DHT22;5402;50.004;8.246;2023-03-14T01:35:43;10.70;99.90
10702;DHT22;5402;50.004;8.246;2023-03-14T01:38:10;10.70;99.90
10702;DHT22;5402;50.004;8.246;2023-03-14T01:40:43;10.70;99.90
10702;DHT22;5402;50.004;8.246;2023-03-14T01:43:15;10.70;99.90
10702;DHT22;5402;50.004;8.246;2023-03-14T01:48:48;10.60;99.90
10702;DHT22;5402;50.004;8.246;2023-03-14T01:51:20;10.60;99.90
10702;DHT22;5402;50.004;8.246;2023-03-14T01:53:48;10.60;99.90
10702;DHT22;5402;50.004;8.246;2023-03-14T01:56:18;10.60;99.90
10702;DHT22;5402;50.004;8.246;2023-03-14T01:58:47;10.60;99.90
10702;DHT22;5402;50.004;8.246;2023-03-14T02:01:16;10.60;99.90
10702;DHT22;5402;50.004;8.246;2023-03-14T02:03:47;10.60;99.90
10702;DHT22;5402;50.004;8.246;2023-03-14T02:06:14;10.60;99.90
10702;DHT22;5402;50.004;8.246;2023-03-14T02:08:44;10.60;99.90
10702;DHT22;5402;50.004;8.246;2023-03-14T02:11:13;10.60;99.90
10702;DHT22;5402;50.004;8.246;2023-03-14T02:13:42;10.60;99.90
10702;DHT22;5402;50.004;8.246;2023-03-14T02:16:09;10.60;99.90
10702;DHT22;5402;50.004;8.246;2023-03-14T02:18:35;10.80;99.90
10702;DHT22;5402;50.004;8.246;2023-03-14T02:21:08;10.80;99.90
10702;DHT22;5402;50.004;8.246;2023-03-14T02:23:45;10.70;99.90
10702;DHT22;5402;50.004;8.246;2023-03-14T02:26:17;10.70;99.90
10702;DHT22;5402;50.004;8.246;2023-03-14T02:28:50;10.80;99.90
10702;DHT22;5402;50.004;8.246;2023-03-14T02:31:20;10.80;99.90
10702;DHT22;5402;50.004;8.246;2023-03-14T02:33:49;10.70;99.90
10702;DHT22;5402;50.004;8.246;2023-03-14T02:36:18;10.70;99.90
10702;DHT22;5402;50.004;8.246;2023-03-14T02:38:49;10.60;99.90
10702;DHT22;5402;50.004;8.246;2023-03-14T02:41:18;10.40;99.90
10702;DHT22;5402;50.004;8.246;2023-03-14T02:43:46;10.50;99.90
10702;DHT22;5402;50.004;8.246;2023-03-14T02:46:14;10.50;99.90
10702;DHT22;5402;50.004;8.246;2023-03-14T02:48:45;10.50;99.90
10702;DHT22;5402;50.004;8.246;2023-03-14T02:51:15;10.50;99.90
10702;DHT22;5402;50.004;8.246;2023-03-14T02:53:42;10.50;99.90
10702;DHT22;5402;50.004;8.246;2023-03-14T02:56:10;10.50;99.90
10702;DHT22;5402;50.004;8.246;2023-03-14T02:58:37;10.50;99.90
10702;DHT22;5402;50.004;8.246;2023-03-14T03:01:06;10.50;99.90
10702;DHT22;5402;50.004;8.246;2023-03-14T03:03:32;10.40;99.90
10702;DHT22;5402;50.004;8.246;2023-03-14T03:05:59;10.50;99.90
10702;DHT22;5402;50.004;8.246;2023-03-14T03:08:27;10.50;99.90
10702;DHT22;5402;50.004;8.246;2023-03-14T03:10:58;10.50;99.90
10702;DHT22;5402;50.004;8.246;2023-03-14T03:13:25;10.50;99.90
10702;DHT22;5402;50.004;8.246;2023-03-14T03:15:52;10.50;99.90
10702;DHT22;5402;50.004;8.246;2023-03-14T03:18:20;10.50;99.90
10702;DHT22;5402;50.004;8.246;2023-03-14T03:20:47;10.60;99.90
10702;DHT22;5402;50.004;8.246;2023-03-14T03:23:14;10.50;99.90
10702;DHT22;5402;50.004;8.246;2023-03-14T03:25:40;10.60;99.90
10702;DHT22;5402;50.004;8.246;2023-03-14T03:28:07;10.60;99.90
10702;DHT22;5402;50.004;8.246;2023-03-14T03:30:37;10.60;99.90
10702;DHT22;5402;50.004;8.246;2023-03-14T03:33:04;10.60;99.90
10702;DHT22;5402;50.004;8.246;2023-03-14T03:35:32;10.60;99.90
10702;DHT22;5402;50.004;8.246;2023-03-14T03:37:58;10.60;99.90
10702;DHT22;5402;50.004;8.246;2023-03-14T03:40:25;10.60;99.90
10702;DHT22;5402;50.004;8.246;2023-03-14T03:42:52;10.60;99.90
10702;DHT22;5402;50.004;8.246;2023-03-14T03:45:19;10.50;99.90
10702;DHT22;5402;50.004;8.246;2023-03-14T03:47:45;10.60;99.90
10702;DHT22;5402;50.004;8.246;2023-03-14T03:50:12;10.60;99.90
10702;DHT22;5402;50.004;8.246;2023-03-14T03:52:41;10.60;99.90
10702;DHT22;5402;50.004;8.246;2023-03-14T03:55:08;10.50;99.90
10702;DHT22;5402;50.004;8.246;2023-03-14T03:57:35;10.60;99.90
10702;DHT22;5402;50.004;8.246;2023-03-14T04:00:02;10.60;99.90
10702;DHT22;5402;50.004;8.246;2023-03-14T04:02:30;10.50;99.90
10702;DHT22;5402;50.004;8.246;2023-03-14T04:04:57;10.50;99.90
10702;DHT22;5402;50.004;8.246;2023-03-14T04:07:23;10.60;99.90
10702;DHT22;5402;50.004;8.246;2023-03-14T04:09:51;10.50;99.90
10702;DHT22;5402;50.004;8.246;2023-03-14T04:12:18;10.50;99.90
10702;DHT22;5402;50.004;8.246;2023-03-14T04:14:45;10.50;99.90
10702;DHT22;5402;50.004;8.246;2023-03-14T04:17:12;10.60;99.90
10702;DHT22;5402;50.004;8.246;2023-03-14T04:19:38;10.50;99.90
10702;DHT22;5402;50.004;8.246;2023-03-14T04:22:06;10.50;99.90
10702;DHT22;5402;50.004;8.246;2023-03-14T04:24:32;10.50;99.90
10702;DHT22;5402;50.004;8.246;2023-03-14T04:27:00;10.50;99.90
10702;DHT22;5402;50.004;8.246;2023-03-14T04:29:27;10.50;99.90
10702;DHT22;5402;50.004;8.246;2023-03-14T04:31:54;10.40;99.90
10702;DHT22;5402;50.004;8.246;2023-03-14T04:34:20;10.40;99.90
10702;DHT22;5402;50.004;8.246;2023-03-14T04:36:47;10.30;99.90
10702;DHT22;5402;50.004;8.246;2023-03-14T04:39:14;10.30;99.90
10702;DHT22;5402;50.004;8.246;2023-03-14T04:41:40;10.30;99.90
10702;DHT22;5402;50.004;8.246;2023-03-14T04:44:08;10.30;99.90
10702;DHT22;5402;50.004;8.246;2023-03-14T04:46:35;10.30;99.90
10702;DHT22;5402;50.004;8.246;2023-03-14T04:49:02;10.30;99.90
10702;DHT22;5402;50.004;8.246;2023-03-14T04:51:28;10.20;99.90
10702;DHT22;5402;50.004;8.246;2023-03-14T04:53:55;10.20;99.90
10702;DHT22;5402;50.004;8.246;2023-03-14T04:56:22;10.20;99.90
10702;DHT22;5402;50.004;8.246;2023-03-14T04:58:48;10.10;99.90
10702;DHT22;5402;50.004;8.246;2023-03-14T05:01:17;10.10;99.90
10702;DHT22;5402;50.004;8.246;2023-03-14T05:03:44;10.10;99.90
10702;DHT22;5402;50.004;8.246;2023-03-14T05:06:10;10.10;99.90
10702;DHT22;5402;50.004;8.246;2023-03-14T05:08:37;10.10;99.90
10702;DHT22;5402;50.004;8.246;2023-03-14T05:11:04;10.20;99.90
10702;DHT22;5402;50.004;8.246;2023-03-14T05:13:31;10.10;99.90
10702;DHT22;5402;50.004;8.246;2023-03-14T05:16:03;10.10;99.90
10702;DHT22;5402;50.004;8.246;2023-03-14T05:18:31;10.10;99.90
10702;DHT22;5402;50.004;8.246;2023-03-14T05:20:58;10.10;99.90
10702;DHT22;5402;50.004;8.246;2023-03-14T05:23:25;10.10;99.90
10702;DHT22;5402;50.004;8.246;2023-03-14T05:25:52;10.10;99.90
10702;DHT22;5402;50.004;8.246;2023-03-14T05:28:18;10.10;99.90
10702;DHT22;5402;50.004;8.246;2023-03-14T05:30:45;10.10;99.90
10702;DHT22;5402;50.004;8.246;2023-03-14T05:33:12;10.00;99.90
10702;DHT22;5402;50.004;8.246;2023-03-14T05:35:40;10.00;99.90
10702;DHT22;5402;50.004;8.246;2023-03-14T05:38:08;10.10;99.90
10702;DHT22;5402;50.004;8.246;2023-03-14T05:40:34;10.10;99.90
10702;DHT22;5402;50.004;8.246;2023-03-14T05:43:01;10.10;99.90
10702;DHT22;5402;50.004;8.246;2023-03-14T05:45:28;10.10;99.90
10702;DHT22;5402;50.004;8.246;2023-03-14T05:47:54;10.10;99.90
10702;DHT22;5402;50.004;8.246;2023-03-14T05:50:21;10.10;99.90
10702;DHT22;5402;50.004;8.246;2023-03-14T05:52:49;10.10;99.90
10702;DHT22;5402;50.004;8.246;2023-03-14T05:55:16;10.10;99.90
10702;DHT22;5402;50.004;8.246;2023-03-14T05:57:42;10.00;99.90
10702;DHT22;5402;50.004;8.246;2023-03-14T06:00:10;10.10;99.90
10702;DHT22;5402;50.004;8.246;2023-03-14T06:02:37;10.10;99.90
10702;DHT22;5402;50.004;8.246;2023-03-14T06:05:05;10.10;99.90
10702;DHT22;5402;50.004;8.246;2023-03-14T06:07:32;10.10;99.90
10702;DHT22;5402;50.004;8.246;2023-03-14T06:10:00;10.10;99.90
10702;DHT22;5402;50.004;8.246;2023-03-14T06:12:26;10.10;99.90
10702;DHT22;5402;50.004;8.246;2023-03-14T06:14:53;10.00;99.90
10702;DHT22;5402;50.004;8.246;2023-03-14T06:17:20;10.10;99.90
10702;DHT22;5402;50.004;8.246;2023-03-14T06:19:47;10.10;99.90
10702;DHT22;5402;50.004;8.246;2023-03-14T06:22:14;10.00;99.90
10702;DHT22;5402;50.004;8.246;2023-03-14T06:24:41;10.00;99.90
10702;DHT22;5402;50.004;8.246;2023-03-14T06:27:09;10.10;99.90
10702;DHT22;5402;50.004;8.246;2023-03-14T06:29:35;10.10;99.90
10702;DHT22;5402;50.004;8.246;2023-03-14T06:32:02;10.10;99.90
10702;DHT22;5402;50.004;8.246;2023-03-14T06:34:29;10.10;99.90
10702;DHT22;5402;50.004;8.246;2023-03-14T06:36:56;10.10;99.90
10702;DHT22;5402;50.004;8.246;2023-03-14T06:39:23;10.10;99.90
10702;DHT22;5402;50.004;8.246;2023-03-14T06:41:49;10.10;99.90
10702;DHT22;5402;50.004;8.246;2023-03-14T06:44:18;10.10;99.90
10702;DHT22;5402;50.004;8.246;2023-03-14T06:46:44;10.20;99.90
10702;DHT22;5402;50.004;8.246;2023-03-14T06:49:11;10.20;99.90
10702;DHT22;5402;50.004;8.246;2023-03-14T06:51:38;10.20;99.90
10702;DHT22;5402;50.004;8.246;2023-03-14T06:54:04;10.30;99.90
10702;DHT22;5402;50.004;8.246;2023-03-14T06:56:31;10.30;99.90
10702;DHT22;5402;50.004;8.246;2023-03-14T06:58:58;10.30;99.90
10702;DHT22;5402;50.004;8.246;2023-03-14T07:01:27;10.40;99.90
10702;DHT22;5402;50.004;8.246;2023-03-14T07:03:54;10.40;99.90
10702;DHT22;5402;50.004;8.246;2023-03-14T07:06:21;10.40;99.90
10702;DHT22;5402;50.004;8.246;2023-03-14T07:08:48;10.40;99.90
10702;DHT22;5402;50.004;8.246;2023-03-14T07:11:15;10.40;99.90
10702;DHT22;5402;50.004;8.246;2023-03-14T07:13:42;10.40;99.90
10702;DHT22;5402;50.004;8.246;2023-03-14T07:16:08;10.50;99.90
10702;DHT22;5402;50.004;8.246;2023-03-14T07:18:36;10.50;99.90
10702;DHT22;5402;50.004;8.246;2023-03-14T07:21:04;10.50;99.90
10702;DHT22;5402;50.004;8.246;2023-03-14T07:23:31;10.50;99.90
10702;DHT22;5402;50.004;8.246;2023-03-14T07:25:58;10.50;99.90
10702;DHT22;5402;50.004;8.246;2023-03-14T07:28:24;10.50;99.90
10702;DHT22;5402;50.004;8.246;2023-03-14T07:30:52;10.50;99.90
10702;DHT22;5402;50.004;8.246;2023-03-14T07:33:19;10.50;99.90
10702;DHT22;5402;50.004;8.246;2023-03-14T07:35:48;10.50;99.90
10702;DHT22;5402;50.004;8.246;2023-03-14T07:38:15;10.40;99.90
10702;DHT22;5402;50.004;8.246;2023-03-14T07:40:42;10.40;99.90
10702;DHT22;5402;50.004;8.246;2023-03-14T07:43:08;10.40;99.90
10702;DHT22;5402;50.004;8.246;2023-03-14T07:45:35;10.50;99.90
10702;DHT22;5402;50.004;8.246;2023-03-14T07:48:02;10.50;99.90
10702;DHT22;5402;50.004;8.246;2023-03-14T07:50:29;10.50;99.90
10702;DHT22;5402;50.004;8.246;2023-03-14T07:52:57;10.50;99.90
10702;DHT22;5402;50.004;8.246;2023-03-14T07:55:24;10.40;99.90
10702;DHT22;5402;50.004;8.246;2023-03-14T07:57:50;10.40;99.90
10702;DHT22;5402;50.004;8.246;2023-03-14T08:00:19;10.40;99.90
10702;DHT22;5402;50.004;8.246;2023-03-14T08:02:46;10.40;99.90
10702;DHT22;5402;50.004;8.246;2023-03-14T08:05:13;10.40;99.90
10702;DHT22;5402;50.004;8.246;2023-03-14T08:07:39;10.40;99.90
10702;DHT22;5402;50.004;8.246;2023-03-14T08:10:09;10.40;99.90
10702;DHT22;5402;50.004;8.246;2023-03-14T08:12:36;10.50;99.90
10702;DHT22;5402;50.004;8.246;2023-03-14T08:15:16;10.50;99.90
10702;DHT22;5402;50.004;8.246;2023-03-14T08:17:43;10.70;99.90
10702;DHT22;5402;50.004;8.246;2023-03-14T08:20:11;10.70;99.90
10702;DHT22;5402;50.004;8.246;2023-03-14T08:22:38;10.80;99.90
10702;DHT22;5402;50.004;8.246;2023-03-14T08:25:06;11.00;99.90
10702;DHT22;5402;50.004;8.246;2023-03-14T08:27:34;11.10;99.90
10702;DHT22;5402;50.004;8.246;2023-03-14T08:30:03;11.20;99.90
10702;DHT22;5402;50.004;8.246;2023-03-14T08:32:30;11.30;99.90
10702;DHT22;5402;50.004;8.246;2023-03-14T08:34:57;11.30;99.90
10702;DHT22;5402;50.004;8.246;2023-03-14T08:37:24;11.50;99.90
10702;DHT22;5402;50.004;8.246;2023-03-14T08:39:50;11.50;99.90
10702;DHT22;5402;50.004;8.246;2023-03-14T08:42:18;11.60;99.90
10702;DHT22;5402;50.004;8.246;2023-03-14T08:44:46;11.50;99.90
10702;DHT22;5402;50.004;8.246;2023-03-14T08:47:13;11.60;99.90
10702;DHT22;5402;50.004;8.246;2023-03-14T08:49:40;11.60;99.90
10702;DHT22;5402;50.004;8.246;2023-03-14T08:52:06;11.50;99.90
10702;DHT22;5402;50.004;8.246;2023-03-14T08:54:33;11.60;99.90
10702;DHT22;5402;50.004;8.246;2023-03-14T08:57:00;11.50;99.90
10702;DHT22;5402;50.004;8.246;2023-03-14T08:59:27;11.40;99.90
10702;DHT22;5402;50.004;8.246;2023-03-14T09:01:55;11.20;99.90
10702;DHT22;5402;50.004;8.246;2023-03-14T09:04:21;11.10;99.90
10702;DHT22;5402;50.004;8.246;2023-03-14T09:06:48;11.20;99.90
10702;DHT22;5402;50.004;8.246;2023-03-14T09:09:15;11.20;99.90
10702;DHT22;5402;50.004;8.246;2023-03-14T09:11:42;11.30;99.90
10702;DHT22;5402;50.004;8.246;2023-03-14T09:14:09;11.20;99.90
10702;DHT22;5402;50.004;8.246;2023-03-14T09:16:36;11.20;99.90
10702;DHT22;5402;50.004;8.246;2023-03-14T09:19:04;11.20;99.90
10702;DHT22;5402;50.004;8.246;2023-03-14T09:21:31;11.20;99.90
10702;DHT22;5402;50.004;8.246;2023-03-14T09:23:58;11.30;99.90
10702;DHT22;5402;50.004;8.246;2023-03-14T09:26:24;11.30;99.90
10702;DHT22;5402;50.004;8.246;2023-03-14T09:28:51;11.30;99.90
10702;DHT22;5402;50.004;8.246;2023-03-14T09:31:18;11.30;99.90
10702;DHT22;5402;50.004;8.246;2023-03-14T09:33:45;11.30;99.90
10702;DHT22;5402;50.004;8.246;2023-03-14T09:36:13;11.40;99.90
10702;DHT22;5402;50.004;8.246;2023-03-14T09:38:40;11.40;99.90
10702;DHT22;5402;50.004;8.246;2023-03-14T09:41:14;11.50;99.90
10702;DHT22;5402;50.004;8.246;2023-03-14T09:43:42;11.70;99.90
10702;DHT22;5402;50.004;8.246;2023-03-14T09:46:10;11.50;99.90
10702;DHT22;5402;50.004;8.246;2023-03-14T09:48:38;11.60;99.90
10702;DHT22;5402;50.004;8.246;2023-03-14T09:51:07;11.70;99.90
10702;DHT22;5402;50.004;8.246;2023-03-14T09:53:40;11.70;99.90
10702;DHT22;5402;50.004;8.246;2023-03-14T09:56:13;11.90;99.90
10702;DHT22;5402;50.004;8.246;2023-03-14T09:58:43;11.60;99.90
10702;DHT22;5402;50.004;8.246;2023-03-14T10:01:15;11.80;99.90
10702;DHT22;5402;50.004;8.246;2023-03-14T10:03:44;11.90;99.90
10702;DHT22;5402;50.004;8.246;2023-03-14T10:06:12;11.80;99.90
10702;DHT22;5402;50.004;8.246;2023-03-14T10:08:41;12.00;99.90
10702;DHT22;5402;50.004;8.246;2023-03-14T10:11:13;11.70;99.90
10702;DHT22;5402;50.004;8.246;2023-03-14T10:13:48;11.70;99.90
10702;DHT22;5402;50.004;8.246;2023-03-14T10:16:15;11.80;99.90
10702;DHT22;5402;50.004;8.246;2023-03-14T10:18:45;11.80;99.90
10702;DHT22;5402;50.004;8.246;2023-03-14T10:21:20;11.80;99.90
10702;DHT22;5402;50.004;8.246;2023-03-14T10:23:48;11.70;99.90
10702;DHT22;5402;50.004;8.246;2023-03-14T10:26:17;11.70;99.90
10702;DHT22;5402;50.004;8.246;2023-03-14T10:28:46;11.70;99.90
10702;DHT22;5402;50.004;8.246;2023-03-14T10:31:14;11.70;99.90
10702;DHT22;5402;50.004;8.246;2023-03-14T10:33:41;11.70;99.90
10702;DHT22;5402;50.004;8.246;2023-03-14T10:36:18;11.70;99.90
10702;DHT22;5402;50.004;8.246;2023-03-14T10:38:45;11.70;99.90
10702;DHT22;5402;50.004;8.246;2023-03-14T10:41:20;11.70;99.90
10702;DHT22;5402;50.004;8.246;2023-03-14T10:43:51;11.70;99.90
10702;DHT22;5402;50.004;8.246;2023-03-14T10:46:20;11.70;99.90
10702;DHT22;5402;50.004;8.246;2023-03-14T10:48:47;11.70;99.90
10702;DHT22;5402;50.004;8.246;2023-03-14T10:51:19;11.70;99.90
10702;DHT22;5402;50.004;8.246;2023-03-14T10:53:59;11.70;99.90
10702;DHT22;5402;50.004;8.246;2023-03-14T10:56:34;11.80;99.90
10702;DHT22;5402;50.004;8.246;2023-03-14T10:59:01;11.80;99.90
10702;DHT22;5402;50.004;8.246;2023-03-14T11:01:37;11.80;99.90
10702;DHT22;5402;50.004;8.246;2023-03-14T11:04:15;11.80;99.90
10702;DHT22;5402;50.004;8.246;2023-03-14T11:06:51;11.90;99.90
10702;DHT22;5402;50.004;8.246;2023-03-14T11:09:23;11.90;99.90
10702;DHT22;5402;50.004;8.246;2023-03-14T11:11:58;11.90;99.90
10702;DHT22;5402;50.004;8.246;2023-03-14T11:14:34;12.00;99.90
10702;DHT22;5402;50.004;8.246;2023-03-14T11:17:09;12.00;99.90
10702;DHT22;5402;50.004;8.246;2023-03-14T11:19:47;12.00;99.90
10702;DHT22;5402;50.004;8.246;2023-03-14T11:22:28;12.10;99.90
10702;DHT22;5402;50.004;8.246;2023-03-14T11:25:14;12.10;99.90
10702;DHT22;5402;50.004;8.246;2023-03-14T11:27:50;12.20;99.90
10702;DHT22;5402;50.004;8.246;2023-03-14T11:30:23;12.50;99.90
10702;DHT22;5402;50.004;8.246;2023-03-14T11:32:59;12.80;99.90
10702;DHT22;5402;50.004;8.246;2023-03-14T11:35:30;12.70;99.90
10702;DHT22;5402;50.004;8.246;2023-03-14T11:38:05;12.70;99.90
10702;DHT22;5402;50.004;8.246;2023-03-14T11:40:36;12.50;99.90
10702;DHT22;5402;50.004;8.246;2023-03-14T11:43:13;12.50;99.90
10702;DHT22;5402;50.004;8.246;2023-03-14T11:45:42;11.80;99.90
10702;DHT22;5402;50.004;8.246;2023-03-14T11:48:25;11.70;99.90
10702;DHT22;5402;50.004;8.246;2023-03-14T11:50:57;11.80;99.90
10702;DHT22;5402;50.004;8.246;2023-03-14T11:53:38;11.90;99.90
10702;DHT22;5402;50.004;8.246;2023-03-14T11:56:13;11.70;99.90
10702;DHT22;5402;50.004;8.246;2023-03-14T11:58:50;11.50;99.90
10702;DHT22;5402;50.004;8.246;2023-03-14T12:01:18;11.30;99.90
10702;DHT22;5402;50.004;8.246;2023-03-14T12:03:54;11.00;99.90
10702;DHT22;5402;50.004;8.246;2023-03-14T12:06:25;11.10;99.90
10702;DHT22;5402;50.004;8.246;2023-03-14T12:09:02;11.00;99.90
10702;DHT22;5402;50.004;8.246;2023-03-14T12:11:36;11.20;99.90
10702;DHT22;5402;50.004;8.246;2023-03-14T12:14:17;11.20;99.90
10702;DHT22;5402;50.004;8.246;2023-03-14T12:16:46;11.20;99.90
10702;DHT22;5402;50.004;8.246;2023-03-14T12:19:25;11.00;99.90
10702;DHT22;5402;50.004;8.246;2023-03-14T12:21:55;10.70;99.90
10702;DHT22;5402;50.004;8.246;2023-03-14T12:24:27;10.90;99.90
10702;DHT22;5402;50.004;8.246;2023-03-14T12:26:56;11.10;99.90
10702;DHT22;5402;50.004;8.246;2023-03-14T12:29:24;11.30;99.90
10702;DHT22;5402;50.004;8.246;2023-03-14T12:32:09;11.30;99.90
10702;DHT22;5402;50.004;8.246;2023-03-14T12:34:39;11.50;99.90
10702;DHT22;5402;50.004;8.246;2023-03-14T12:37:16;11.40;99.90
10702;DHT22;5402;50.004;8.246;2023-03-14T12:39:50;11.40;99.90
10702;DHT22;5402;50.004;8.246;2023-03-14T12:42:35;11.20;99.90
10702;DHT22;5402;50.004;8.246;2023-03-14T12:45:26;11.10;99.90
10702;DHT22;5402;50.004;8.246;2023-03-14T12:47:55;11.10;99.90
10702;DHT22;5402;50.004;8.246;2023-03-14T12:50:31;11.20;99.90
10702;DHT22;5402;50.004;8.246;2023-03-14T12:55:58;11.10;99.90
10702;DHT22;5402;50.004;8.246;2023-03-14T12:58:31;11.00;99.90
10702;DHT22;5402;50.004;8.246;2023-03-14T13:01:03;10.80;99.90
10702;DHT22;5402;50.004;8.246;2023-03-14T13:03:45;10.90;99.90
10702;DHT22;5402;50.004;8.246;2023-03-14T13:06:49;10.80;99.90
10702;DHT22;5402;50.004;8.246;2023-03-14T13:12:29;10.80;99.90
10702;DHT22;5402;50.004;8.246;2023-03-14T13:14:59;10.70;99.90
10702;DHT22;5402;50.004;8.246;2023-03-14T13:17:31;9.80;99.90
10702;DHT22;5402;50.004;8.246;2023-03-14T13:20:02;8.50;99.90
10702;DHT22;5402;50.004;8.246;2023-03-14T13:22:33;8.50;99.90
10702;DHT22;5402;50.004;8.246;2023-03-14T13:25:04;8.60;99.90
10702;DHT22;5402;50.004;8.246;2023-03-14T13:27:33;8.60;99.90
10702;DHT22;5402;50.004;8.246;2023-03-14T13:30:19;8.60;99.90
10702;DHT22;5402;50.004;8.246;2023-03-14T13:32:47;8.70;99.90
10702;DHT22;5402;50.004;8.246;2023-03-14T13:35:17;8.80;99.90
10702;DHT22;5402;50.004;8.246;2023-03-14T13:37:45;9.00;99.90
10702;DHT22;5402;50.004;8.246;2023-03-14T13:40:23;9.10;99.90
10702;DHT22;5402;50.004;8.246;2023-03-14T13:43:00;9.30;99.90
10702;DHT22;5402;50.004;8.246;2023-03-14T13:45:27;9.40;99.90
10702;DHT22;5402;50.004;8.246;2023-03-14T13:47:54;9.60;99.90
10702;DHT22;5402;50.004;8.246;2023-03-14T13:50:21;9.80;99.90
10702;DHT22;5402;50.004;8.246;2023-03-14T13:52:55;9.90;99.90
10702;DHT22;5402;50.004;8.246;2023-03-14T13:55:22;9.60;99.90
10702;DHT22;5402;50.004;8.246;2023-03-14T13:57:50;9.80;99.90
10702;DHT22;5402;50.004;8.246;2023-03-14T14:00:21;9.80;99.90
10702;DHT22;5402;50.004;8.246;2023-03-14T14:02:52;9.80;99.90
10702;DHT22;5402;50.004;8.246;2023-03-14T14:05:19;9.80;99.90
10702;DHT22;5402;50.004;8.246;2023-03-14T14:07:50;9.90;99.90
10702;DHT22;5402;50.004;8.246;2023-03-14T14:10:18;9.90;99.90
10702;DHT22;5402;50.004;8.246;2023-03-14T14:12:47;9.80;99.90
10702;DHT22;5402;50.004;8.246;2023-03-14T14:15:19;9.90;99.90
10702;DHT22;5402;50.004;8.246;2023-03-14T14:17:49;10.00;99.90
10702;DHT22;5402;50.004;8.246;2023-03-14T14:20:21;9.90;99.90
10702;DHT22;5402;50.004;8.246;2023-03-14T14:22:50;10.00;99.90
10702;DHT22;5402;50.004;8.246;2023-03-14T14:25:18;9.90;99.90
10702;DHT22;5402;50.004;8.246;2023-03-14T14:27:48;9.90;99.90
10702;DHT22;5402;50.004;8.246;2023-03-14T14:30:30;9.90;99.90
10702;DHT22;5402;50.004;8.246;2023-03-14T14:33:18;9.80;99.90
10702;DHT22;5402;50.004;8.246;2023-03-14T14:35:51;9.50;99.90
10702;DHT22;5402;50.004;8.246;2023-03-14T14:38:20;9.50;99.90
10702;DHT22;5402;50.004;8.246;2023-03-14T14:40:49;9.60;99.90
10702;DHT22;5402;50.004;8.246;2023-03-14T14:43:19;9.60;99.90
10702;DHT22;5402;50.004;8.246;2023-03-14T14:45:48;9.40;99.90
10702;DHT22;5402;50.004;8.246;2023-03-14T14:48:19;9.30;99.90
10702;DHT22;5402;50.004;8.246;2023-03-14T14:50:54;9.20;99.90
10702;DHT22;5402;50.004;8.246;2023-03-14T14:53:26;9.10;99.90
10702;DHT22;5402;50.004;8.246;2023-03-14T14:55:54;9.10;99.90
10702;DHT22;5402;50.004;8.246;2023-03-14T14:58:24;9.10;99.90
10702;DHT22;5402;50.004;8.246;2023-03-14T15:00:53;9.00;99.90
10702;DHT22;5402;50.004;8.246;2023-03-14T15:03:21;8.90;99.90
10702;DHT22;5402;50.004;8.246;2023-03-14T15:05:48;8.90;99.90
10702;DHT22;5402;50.004;8.246;2023-03-14T15:08:14;9.00;99.90
10702;DHT22;5402;50.004;8.246;2023-03-14T15:10:42;8.90;99.90
10702;DHT22;5402;50.004;8.246;2023-03-14T15:13:09;8.40;99.90
10702;DHT22;5402;50.004;8.246;2023-03-14T15:15:36;8.20;99.90
10702;DHT22;5402;50.004;8.246;2023-03-14T15:18:12;8.10;99.90
10702;DHT22;5402;50.004;8.246;2023-03-14T15:20:39;7.70;99.90
10702;DHT22;5402;50.004;8.246;2023-03-14T15:23:10;7.50;99.90
10702;DHT22;5402;50.004;8.246;2023-03-14T15:25:36;7.30;99.90
10702;DHT22;5402;50.004;8.246;2023-03-14T15:28:13;7.30;99.90
10702;DHT22;5402;50.004;8.246;2023-03-14T15:30:40;7.20;99.90
10702;DHT22;5402;50.004;8.246;2023-03-14T15:33:07;7.30;99.90
10702;DHT22;5402;50.004;8.246;2023-03-14T15:35:34;7.10;99.90
10702;DHT22;5402;50.004;8.246;2023-03-14T15:38:01;7.00;99.90
10702;DHT22;5402;50.004;8.246;2023-03-14T15:40:28;7.10;99.90
10702;DHT22;5402;50.004;8.246;2023-03-14T15:42:55;7.30;99.90
10702;DHT22;5402;50.004;8.246;2023-03-14T15:45:24;7.40;99.90
10702;DHT22;5402;50.004;8.246;2023-03-14T15:47:50;7.30;99.90
10702;DHT22;5402;50.004;8.246;2023-03-14T15:50:17;7.30;99.90
10702;DHT22;5402;50.004;8.246;2023-03-14T15:52:44;7.30;99.90
10702;DHT22;5402;50.004;8.246;2023-03-14T15:55:11;7.10;99.90
10702;DHT22;5402;50.004;8.246;2023-03-14T15:57:40;6.90;99.90
10702;DHT22;5402;50.004;8.246;2023-03-14T16:00:09;6.90;99.90
10702;DHT22;5402;50.004;8.246;2023-03-14T16:02:40;6.70;99.90
10702;DHT22;5402;50.004;8.246;2023-03-14T16:05:07;6.70;99.90
10702;DHT22;5402;50.004;8.246;2023-03-14T16:07:34;6.70;99.90
10702;DHT22;5402;50.004;8.246;2023-03-14T16:10:02;6.60;99.90
10702;DHT22;5402;50.004;8.246;2023-03-14T16:12:29;6.60;99.90